sensor_id;sensor_type;location;lat;lon;timestamp;temperature;humidity
52656;SHT85;35474;51.032;6.998;2022-08-05T00:01:20;22.57;73.47
52656;SHT85;35474;51.032;6.998;2022-08-05T00:03:53;22.57;73.96
52656;SHT85;35474;51.032;6.998;2022-08-05T00:06:22;22.54;73.80
52656;SHT85;35474;51.032;6.998;2022-08-05T00:08:58;22.56;73.58
52656;SHT85;35474;51.032;6.998;2022-08-05T00:11:28;22.48;73.55
52656;SHT85;35474;51.032;6.998;2022-08-05T00:14:00;22.47;74.06
52656;SHT85;35474;51.032;6.998;2022-08-05T00:16:41;22.36;73.84
52656;SHT85;35474;51.032;6.998;2022-08-05T00:19:20;22.33;74.35
52656;SHT85;35474;51.032;6.998;2022-08-05T00:21:48;22.29;74.04
52656;SHT85;35474;51.032;6.998;2022-08-05T00:24:15;22.27;74.32
52656;SHT85;35474;51.032;6.998;2022-08-05T00:26:50;22.35;74.38
52656;SHT85;35474;51.032;6.998;2022-08-05T00:29:19;22.40;73.58
52656;SHT85;35474;51.032;6.998;2022-08-05T00:31:50;22.47;73.44
52656;SHT85;35474;51.032;6.998;2022-08-05T00:34:38;22.47;73.41
52656;SHT85;35474;51.032;6.998;2022-08-05T00:37:25;22.50;73.05
52656;SHT85;35474;51.032;6.998;2022-08-05T00:40:12;22.46;73.48
52656;SHT85;35474;51.032;6.998;2022-08-05T00:42:42;22.57;73.27
52656;SHT85;35474;51.032;6.998;2022-08-05T00:45:14;22.57;73.62
52656;SHT85;35474;51.032;6.998;2022-08-05T00:47:40;22.56;74.48
52656;SHT85;35474;51.032;6.998;2022-08-05T00:50:22;22.50;74.38
52656;SHT85;35474;51.032;6.998;2022-08-05T00:52:50;22.36;74.98
52656;SHT85;35474;51.032;6.998;2022-08-05T00:55:20;22.30;75.20
52656;SHT85;35474;51.032;6.998;2022-08-05T00:57:47;22.25;75.98
52656;SHT85;35474;51.032;6.998;2022-08-05T01:00:23;22.29;75.59
52656;SHT85;35474;51.032;6.998;2022-08-05T01:02:51;22.32;74.54
52656;SHT85;35474;51.032;6.998;2022-08-05T01:05:18;22.25;75.03
52656;SHT85;35474;51.032;6.998;2022-08-05T01:07:44;22.29;74.93
52656;SHT85;35474;51.032;6.998;2022-08-05T01:10:35;22.25;75.34
52656;SHT85;35474;51.032;6.998;2022-08-05T01:16:20;22.15;74.86
52656;SHT85;35474;51.032;6.998;2022-08-05T01:18:53;22.18;74.91
52656;SHT85;35474;51.032;6.998;2022-08-05T01:21:31;22.18;74.85
52656;SHT85;35474;51.032;6.998;2022-08-05T01:24:31;22.16;74.97
52656;SHT85;35474;51.032;6.998;2022-08-05T01:29:59;21.81;75.80
52656;SHT85;35474;51.032;6.998;2022-08-05T01:32:29;21.81;76.25
52656;SHT85;35474;51.032;6.998;2022-08-05T01:35:03;21.55;76.37
52656;SHT85;35474;51.032;6.998;2022-08-05T01:37:39;21.57;76.36
52656;SHT85;35474;51.032;6.998;2022-08-05T01:40:10;21.60;76.38
52656;SHT85;35474;51.032;6.998;2022-08-05T01:42:43;21.71;75.86
52656;SHT85;35474;51.032;6.998;2022-08-05T01:45:12;21.52;76.09
52656;SHT85;35474;51.032;6.998;2022-08-05T01:47:41;21.28;76.77
52656;SHT85;35474;51.032;6.998;2022-08-05T01:50:14;21.42;76.89
52656;SHT85;35474;51.032;6.998;2022-08-05T01:52:55;21.40;76.63
52656;SHT85;35474;51.032;6.998;2022-08-05T01:55:25;21.52;76.39
52656;SHT85;35474;51.032;6.998;2022-08-05T01:58:01;21.31;77.10
52656;SHT85;35474;51.032;6.998;2022-08-05T02:00:41;21.23;77.61
52656;SHT85;35474;51.032;6.998;2022-08-05T02:03:16;21.21;77.61
52656;SHT85;35474;51.032;6.998;2022-08-05T02:06:00;21.23;77.68
52656;SHT85;35474;51.032;6.998;2022-08-05T02:08:50;21.13;78.05
52656;SHT85;35474;51.032;6.998;2022-08-05T02:11:24;21.07;78.22
52656;SHT85;35474;51.032;6.998;2022-08-05T02:14:04;20.92;78.93
52656;SHT85;35474;51.032;6.998;2022-08-05T02:16:46;21.06;78.45
52656;SHT85;35474;51.032;6.998;2022-08-05T02:19:34;20.92;78.93
52656;SHT85;35474;51.032;6.998;2022-08-05T02:22:17;20.61;80.23
52656;SHT85;35474;51.032;6.998;2022-08-05T02:24:52;20.79;79.43
52656;SHT85;35474;51.032;6.998;2022-08-05T02:27:25;20.96;79.15
52656;SHT85;35474;51.032;6.998;2022-08-05T02:30:14;20.79;79.52
52656;SHT85;35474;51.032;6.998;2022-08-05T02:32:42;20.52;80.45
52656;SHT85;35474;51.032;6.998;2022-08-05T02:35:14;20.52;80.91
52656;SHT85;35474;51.032;6.998;2022-08-05T02:37:58;20.87;79.95
52656;SHT85;35474;51.032;6.998;2022-08-05T02:40:27;20.49;82.09
52656;SHT85;35474;51.032;6.998;2022-08-05T02:42:56;20.18;83.86
52656;SHT85;35474;51.032;6.998;2022-08-05T02:45:25;20.01;85.10
52656;SHT85;35474;51.032;6.998;2022-08-05T02:48:13;19.91;85.79
52656;SHT85;35474;51.032;6.998;2022-08-05T02:50:41;19.84;87.17
52656;SHT85;35474;51.032;6.998;2022-08-05T02:53:13;19.52;88.89
52656;SHT85;35474;51.032;6.998;2022-08-05T02:55:45;19.38;89.83
52656;SHT85;35474;51.032;6.998;2022-08-05T02:58:20;19.59;90.62
52656;SHT85;35474;51.032;6.998;2022-08-05T03:00:53;19.60;90.60
52656;SHT85;35474;51.032;6.998;2022-08-05T03:03:21;19.50;90.99
52656;SHT85;35474;51.032;6.998;2022-08-05T03:05:49;19.39;91.44
52656;SHT85;35474;51.032;6.998;2022-08-05T03:08:39;19.26;92.14
52656;SHT85;35474;51.032;6.998;2022-08-05T03:14:04;19.12;92.84
52656;SHT85;35474;51.032;6.998;2022-08-05T03:16:33;19.31;93.30
52656;SHT85;35474;51.032;6.998;2022-08-05T03:19:01;19.08;92.93
52656;SHT85;35474;51.032;6.998;2022-08-05T03:21:38;19.06;93.05
52656;SHT85;35474;51.032;6.998;2022-08-05T03:24:15;18.92;93.09
52656;SHT85;35474;51.032;6.998;2022-08-05T03:26:55;19.12;93.31
52656;SHT85;35474;51.032;6.998;2022-08-05T03:29:22;19.05;93.49
52656;SHT85;35474;51.032;6.998;2022-08-05T03:31:49;19.01;93.35
52656;SHT85;35474;51.032;6.998;2022-08-05T03:34:26;19.05;93.38
52656;SHT85;35474;51.032;6.998;2022-08-05T03:36:53;19.16;93.42
52656;SHT85;35474;51.032;6.998;2022-08-05T03:39:20;19.29;92.66
52656;SHT85;35474;51.032;6.998;2022-08-05T03:41:52;19.49;92.69
52656;SHT85;35474;51.032;6.998;2022-08-05T03:44:21;19.42;92.22
52656;SHT85;35474;51.032;6.998;2022-08-05T03:46:48;19.43;92.04
52656;SHT85;35474;51.032;6.998;2022-08-05T03:49:15;19.34;91.80
52656;SHT85;35474;51.032;6.998;2022-08-05T03:51:48;19.29;92.24
52656;SHT85;35474;51.032;6.998;2022-08-05T03:57:42;19.25;92.93
52656;SHT85;35474;51.032;6.998;2022-08-05T04:00:12;19.12;92.84
52656;SHT85;35474;51.032;6.998;2022-08-05T04:02:42;19.02;93.24
52656;SHT85;35474;51.032;6.998;2022-08-05T04:05:31;19.18;93.35
52656;SHT85;35474;51.032;6.998;2022-08-05T04:08:03;19.43;93.14
52656;SHT85;35474;51.032;6.998;2022-08-05T04:10:52;19.53;93.15
52656;SHT85;35474;51.032;6.998;2022-08-05T04:13:19;19.41;92.95
52656;SHT85;35474;51.032;6.998;2022-08-05T04:15:46;19.45;92.46
52656;SHT85;35474;51.032;6.998;2022-08-05T04:18:29;19.46;92.00
52656;SHT85;35474;51.032;6.998;2022-08-05T04:20:57;19.49;91.74
52656;SHT85;35474;51.032;6.998;2022-08-05T04:23:24;19.46;91.19
52656;SHT85;35474;51.032;6.998;2022-08-05T04:26:12;19.55;90.96
52656;SHT85;35474;51.032;6.998;2022-08-05T04:28:42;19.49;90.85
52656;SHT85;35474;51.032;6.998;2022-08-05T04:31:17;19.36;90.96
52656;SHT85;35474;51.032;6.998;2022-08-05T04:33:43;19.41;90.66
52656;SHT85;35474;51.032;6.998;2022-08-05T04:36:30;19.53;90.75
52656;SHT85;35474;51.032;6.998;2022-08-05T04:39:15;19.63;91.38
52656;SHT85;35474;51.032;6.998;2022-08-05T04:41:45;19.56;91.25
52656;SHT85;35474;51.032;6.998;2022-08-05T04:44:13;19.57;91.33
52656;SHT85;35474;51.032;6.998;2022-08-05T04:46:46;19.73;91.40
52656;SHT85;35474;51.032;6.998;2022-08-05T04:49:13;19.71;91.52
52656;SHT85;35474;51.032;6.998;2022-08-05T04:51:41;19.52;91.07
52656;SHT85;35474;51.032;6.998;2022-08-05T04:54:09;19.39;91.09
52656;SHT85;35474;51.032;6.998;2022-08-05T04:56:37;19.38;91.15
52656;SHT85;35474;51.032;6.998;2022-08-05T04:59:04;19.36;91.03
52656;SHT85;35474;51.032;6.998;2022-08-05T05:01:49;19.28;91.18
52656;SHT85;35474;51.032;6.998;2022-08-05T05:04:39;19.25;91.44
52656;SHT85;35474;51.032;6.998;2022-08-05T05:07:15;19.35;91.66
52656;SHT85;35474;51.032;6.998;2022-08-05T05:09:43;19.32;91.17
52656;SHT85;35474;51.032;6.998;2022-08-05T05:12:10;19.28;91.39
52656;SHT85;35474;51.032;6.998;2022-08-05T05:14:37;19.41;91.03
52656;SHT85;35474;51.032;6.998;2022-08-05T05:17:14;19.50;90.64
52656;SHT85;35474;51.032;6.998;2022-08-05T05:19:48;19.55;89.69
52656;SHT85;35474;51.032;6.998;2022-08-05T05:22:15;19.84;89.76
52656;SHT85;35474;51.032;6.998;2022-08-05T05:24:51;20.00;89.41
52656;SHT85;35474;51.032;6.998;2022-08-05T05:27:23;20.13;89.18
52656;SHT85;35474;51.032;6.998;2022-08-05T05:30:07;20.18;88.58
52656;SHT85;35474;51.032;6.998;2022-08-05T05:32:54;20.18;88.01
52656;SHT85;35474;51.032;6.998;2022-08-05T05:35:21;20.20;88.17
52656;SHT85;35474;51.032;6.998;2022-08-05T05:37:48;20.28;87.94
52656;SHT85;35474;51.032;6.998;2022-08-05T05:40:27;20.25;87.96
52656;SHT85;35474;51.032;6.998;2022-08-05T05:42:57;20.17;87.49
52656;SHT85;35474;51.032;6.998;2022-08-05T05:45:23;20.28;87.20
52656;SHT85;35474;51.032;6.998;2022-08-05T05:47:51;20.31;87.46
52656;SHT85;35474;51.032;6.998;2022-08-05T05:50:32;20.31;87.49
52656;SHT85;35474;51.032;6.998;2022-08-05T05:53:09;20.41;87.52
52656;SHT85;35474;51.032;6.998;2022-08-05T05:55:47;20.71;86.71
52656;SHT85;35474;51.032;6.998;2022-08-05T05:58:26;20.49;87.00
52656;SHT85;35474;51.032;6.998;2022-08-05T06:01:00;20.51;86.89
52656;SHT85;35474;51.032;6.998;2022-08-05T06:03:41;20.39;87.05
52656;SHT85;35474;51.032;6.998;2022-08-05T06:06:27;20.46;87.15
52656;SHT85;35474;51.032;6.998;2022-08-05T06:08:58;20.66;87.01
52656;SHT85;35474;51.032;6.998;2022-08-05T06:11:25;20.87;85.60
52656;SHT85;35474;51.032;6.998;2022-08-05T06:13:54;20.96;85.76
52656;SHT85;35474;51.032;6.998;2022-08-05T06:16:21;21.00;85.66
52656;SHT85;35474;51.032;6.998;2022-08-05T06:18:57;20.90;85.09
52656;SHT85;35474;51.032;6.998;2022-08-05T06:21:25;20.58;85.61
52656;SHT85;35474;51.032;6.998;2022-08-05T06:24:02;20.29;86.78
52656;SHT85;35474;51.032;6.998;2022-08-05T06:26:31;20.15;87.52
52656;SHT85;35474;51.032;6.998;2022-08-05T06:29:00;19.91;87.67
52656;SHT85;35474;51.032;6.998;2022-08-05T06:31:46;19.83;88.09
52656;SHT85;35474;51.032;6.998;2022-08-05T06:34:15;19.64;88.58
52656;SHT85;35474;51.032;6.998;2022-08-05T06:36:45;19.66;88.85
52656;SHT85;35474;51.032;6.998;2022-08-05T06:39:24;19.74;89.28
52656;SHT85;35474;51.032;6.998;2022-08-05T06:41:54;20.10;88.35
52656;SHT85;35474;51.032;6.998;2022-08-05T06:44:23;20.05;87.93
52656;SHT85;35474;51.032;6.998;2022-08-05T06:46:51;19.84;88.08
52656;SHT85;35474;51.032;6.998;2022-08-05T06:49:19;19.77;88.51
52656;SHT85;35474;51.032;6.998;2022-08-05T06:52:06;19.85;88.66
52656;SHT85;35474;51.032;6.998;2022-08-05T06:54:52;19.88;88.83
52656;SHT85;35474;51.032;6.998;2022-08-05T06:57:19;19.97;87.72
52656;SHT85;35474;51.032;6.998;2022-08-05T07:00:05;20.14;87.20
52656;SHT85;35474;51.032;6.998;2022-08-05T07:02:41;20.22;86.70
52656;SHT85;35474;51.032;6.998;2022-08-05T07:05:12;20.15;86.09
52656;SHT85;35474;51.032;6.998;2022-08-05T07:07:44;20.18;86.14
52656;SHT85;35474;51.032;6.998;2022-08-05T07:10:14;20.22;85.57
52656;SHT85;35474;51.032;6.998;2022-08-05T07:12:42;20.17;85.67
52656;SHT85;35474;51.032;6.998;2022-08-05T07:15:27;20.25;85.62
52656;SHT85;35474;51.032;6.998;2022-08-05T07:18:29;20.21;85.56
52656;SHT85;35474;51.032;6.998;2022-08-05T07:20:57;20.17;85.91
52656;SHT85;35474;51.032;6.998;2022-08-05T07:23:29;19.78;86.27
52656;SHT85;35474;51.032;6.998;2022-08-05T07:25:56;19.95;86.22
52656;SHT85;35474;51.032;6.998;2022-08-05T07:28:23;19.91;86.44
52656;SHT85;35474;51.032;6.998;2022-08-05T07:30:51;20.11;85.89
52656;SHT85;35474;51.032;6.998;2022-08-05T07:33:20;20.22;85.36
52656;SHT85;35474;51.032;6.998;2022-08-05T07:36:02;20.21;84.85
52656;SHT85;35474;51.032;6.998;2022-08-05T07:38:46;20.22;85.48
52656;SHT85;35474;51.032;6.998;2022-08-05T07:41:15;20.15;85.06
52656;SHT85;35474;51.032;6.998;2022-08-05T07:44:04;20.11;85.52
52656;SHT85;35474;51.032;6.998;2022-08-05T07:46:44;19.71;86.46
52656;SHT85;35474;51.032;6.998;2022-08-05T07:49:14;19.71;86.74
52656;SHT85;35474;51.032;6.998;2022-08-05T07:51:43;19.76;87.28
52656;SHT85;35474;51.032;6.998;2022-08-05T07:54:20;19.57;87.16
52656;SHT85;35474;51.032;6.998;2022-08-05T07:56:56;19.42;88.32
52656;SHT85;35474;51.032;6.998;2022-08-05T07:59:40;19.49;88.83
52656;SHT85;35474;51.032;6.998;2022-08-05T08:02:09;19.45;88.49
52656;SHT85;35474;51.032;6.998;2022-08-05T08:04:42;19.45;88.96
52656;SHT85;35474;51.032;6.998;2022-08-05T08:07:10;19.47;88.90
52656;SHT85;35474;51.032;6.998;2022-08-05T08:09:37;19.43;88.56
52656;SHT85;35474;51.032;6.998;2022-08-05T08:12:04;19.56;89.00
52656;SHT85;35474;51.032;6.998;2022-08-05T08:14:51;19.43;88.99
52656;SHT85;35474;51.032;6.998;2022-08-05T08:17:18;19.14;89.48
52656;SHT85;35474;51.032;6.998;2022-08-05T08:19:47;19.18;90.48
52656;SHT85;35474;51.032;6.998;2022-08-05T08:22:33;19.22;90.56
52656;SHT85;35474;51.032;6.998;2022-08-05T08:25:00;19.05;90.55
52656;SHT85;35474;51.032;6.998;2022-08-05T08:27:28;18.85;90.41
52656;SHT85;35474;51.032;6.998;2022-08-05T08:30:10;18.99;90.95
52656;SHT85;35474;51.032;6.998;2022-08-05T08:32:58;18.92;90.87
52656;SHT85;35474;51.032;6.998;2022-08-05T08:35:29;18.89;90.67
52656;SHT85;35474;51.032;6.998;2022-08-05T08:38:06;18.89;90.27
52656;SHT85;35474;51.032;6.998;2022-08-05T08:40:33;18.94;90.18
52656;SHT85;35474;51.032;6.998;2022-08-05T08:43:01;18.99;90.25
52656;SHT85;35474;51.032;6.998;2022-08-05T08:45:49;19.05;89.97
52656;SHT85;35474;51.032;6.998;2022-08-05T08:48:19;19.08;90.12
52656;SHT85;35474;51.032;6.998;2022-08-05T08:51:06;19.04;89.79
52656;SHT85;35474;51.032;6.998;2022-08-05T08:53:53;18.95;89.64
52656;SHT85;35474;51.032;6.998;2022-08-05T08:56:20;18.95;89.21
52656;SHT85;35474;51.032;6.998;2022-08-05T08:58:47;18.94;89.35
52656;SHT85;35474;51.032;6.998;2022-08-05T09:01:16;18.83;89.44
52656;SHT85;35474;51.032;6.998;2022-08-05T09:03:48;18.99;89.39
52656;SHT85;35474;51.032;6.998;2022-08-05T09:06:23;19.08;89.32
52656;SHT85;35474;51.032;6.998;2022-08-05T09:08:55;19.04;88.75
52656;SHT85;35474;51.032;6.998;2022-08-05T09:11:24;18.99;89.03
52656;SHT85;35474;51.032;6.998;2022-08-05T09:14:11;18.83;88.42
52656;SHT85;35474;51.032;6.998;2022-08-05T09:17:01;19.01;89.13
52656;SHT85;35474;51.032;6.998;2022-08-05T09:19:33;19.06;87.98
52656;SHT85;35474;51.032;6.998;2022-08-05T09:22:02;19.16;87.39
52656;SHT85;35474;51.032;6.998;2022-08-05T09:24:58;19.15;87.39
52656;SHT85;35474;51.032;6.998;2022-08-05T09:27:32;19.34;87.06
52656;SHT85;35474;51.032;6.998;2022-08-05T09:30:20;19.34;85.53
52656;SHT85;35474;51.032;6.998;2022-08-05T09:32:48;19.42;84.47
52656;SHT85;35474;51.032;6.998;2022-08-05T09:35:17;19.25;84.38
52656;SHT85;35474;51.032;6.998;2022-08-05T09:37:53;19.45;84.30
52656;SHT85;35474;51.032;6.998;2022-08-05T09:40:40;19.31;84.28
52656;SHT85;35474;51.032;6.998;2022-08-05T09:43:32;19.32;84.88
52656;SHT85;35474;51.032;6.998;2022-08-05T09:46:07;19.28;84.79
52656;SHT85;35474;51.032;6.998;2022-08-05T09:48:53;19.25;84.33
52656;SHT85;35474;51.032;6.998;2022-08-05T09:51:40;19.32;83.90
52656;SHT85;35474;51.032;6.998;2022-08-05T09:54:07;19.19;84.50
52656;SHT85;35474;51.032;6.998;2022-08-05T09:56:35;19.18;84.47
52656;SHT85;35474;51.032;6.998;2022-08-05T09:59:07;19.42;84.26
52656;SHT85;35474;51.032;6.998;2022-08-05T10:01:42;19.23;84.37
52656;SHT85;35474;51.032;6.998;2022-08-05T10:04:13;19.06;84.83
52656;SHT85;35474;51.032;6.998;2022-08-05T10:06:52;19.01;85.04
52656;SHT85;35474;51.032;6.998;2022-08-05T10:09:25;18.99;85.01
52656;SHT85;35474;51.032;6.998;2022-08-05T10:11:55;19.18;84.64
52656;SHT85;35474;51.032;6.998;2022-08-05T10:14:53;19.19;83.69
52656;SHT85;35474;51.032;6.998;2022-08-05T10:17:41;19.14;83.66
52656;SHT85;35474;51.032;6.998;2022-08-05T10:20:21;19.20;83.35
52656;SHT85;35474;51.032;6.998;2022-08-05T10:22:50;19.22;83.66
52656;SHT85;35474;51.032;6.998;2022-08-05T10:25:17;18.99;83.85
52656;SHT85;35474;51.032;6.998;2022-08-05T10:27:45;19.05;84.29
52656;SHT85;35474;51.032;6.998;2022-08-05T10:30:33;19.05;83.85
52656;SHT85;35474;51.032;6.998;2022-08-05T10:33:22;18.97;83.17
52656;SHT85;35474;51.032;6.998;2022-08-05T10:35:54;19.39;82.24
52656;SHT85;35474;51.032;6.998;2022-08-05T10:38:26;19.52;81.47
52656;SHT85;35474;51.032;6.998;2022-08-05T10:41:04;20.07;79.86
52656;SHT85;35474;51.032;6.998;2022-08-05T10:43:46;20.17;78.69
52656;SHT85;35474;51.032;6.998;2022-08-05T10:46:14;20.58;77.82
52656;SHT85;35474;51.032;6.998;2022-08-05T10:48:46;20.42;77.54
52656;SHT85;35474;51.032;6.998;2022-08-05T10:51:23;20.28;77.74
52656;SHT85;35474;51.032;6.998;2022-08-05T10:56:35;20.69;76.82
52656;SHT85;35474;51.032;6.998;2022-08-05T10:59:10;20.44;75.44
52656;SHT85;35474;51.032;6.998;2022-08-05T11:02:11;20.00;76.91
52656;SHT85;35474;51.032;6.998;2022-08-05T11:05:01;20.17;76.15
52656;SHT85;35474;51.032;6.998;2022-08-05T11:07:30;20.32;76.19
52656;SHT85;35474;51.032;6.998;2022-08-05T11:10:20;20.96;74.62
52656;SHT85;35474;51.032;6.998;2022-08-05T11:12:54;21.23;72.27
52656;SHT85;35474;51.032;6.998;2022-08-05T11:15:23;21.72;71.51
52656;SHT85;35474;51.032;6.998;2022-08-05T11:18:27;21.99;70.42
52656;SHT85;35474;51.032;6.998;2022-08-05T11:20:59;21.81;70.45
52656;SHT85;35474;51.032;6.998;2022-08-05T11:26:00;22.29;70.49
52656;SHT85;35474;51.032;6.998;2022-08-05T11:33:32;24.58;63.13
52656;SHT85;35474;51.032;6.998;2022-08-05T11:36:12;24.20;62.37
52656;SHT85;35474;51.032;6.998;2022-08-05T11:44:07;25.34;57.45
52656;SHT85;35474;51.032;6.998;2022-08-05T11:46:58;25.03;58.07
52656;SHT85;35474;51.032;6.998;2022-08-05T11:49:41;24.16;60.71
52656;SHT85;35474;51.032;6.998;2022-08-05T11:52:21;25.34;57.01
52656;SHT85;35474;51.032;6.998;2022-08-05T11:54:54;27.49;53.06
52656;SHT85;35474;51.032;6.998;2022-08-05T11:57:26;28.26;48.10
52656;SHT85;35474;51.032;6.998;2022-08-05T12:00:04;28.41;47.57
52656;SHT85;35474;51.032;6.998;2022-08-05T12:02:53;28.04;48.67
52656;SHT85;35474;51.032;6.998;2022-08-05T12:05:25;28.17;47.84
52656;SHT85;35474;51.032;6.998;2022-08-05T12:08:01;28.50;47.61
52656;SHT85;35474;51.032;6.998;2022-08-05T12:10:36;29.67;45.26
52656;SHT85;35474;51.032;6.998;2022-08-05T12:13:14;29.19;44.99
52656;SHT85;35474;51.032;6.998;2022-08-05T12:16:05;26.72;50.08
52656;SHT85;35474;51.032;6.998;2022-08-05T12:18:41;25.91;52.77
52656;SHT85;35474;51.032;6.998;2022-08-05T12:26:33;29.47;44.17
52656;SHT85;35474;51.032;6.998;2022-08-05T12:29:02;28.31;46.80
52656;SHT85;35474;51.032;6.998;2022-08-05T12:31:35;27.83;47.09
52656;SHT85;35474;51.032;6.998;2022-08-05T12:34:13;28.10;45.44
52656;SHT85;35474;51.032;6.998;2022-08-05T12:36:49;28.24;45.47
52656;SHT85;35474;51.032;6.998;2022-08-05T12:39:17;27.46;47.88
52656;SHT85;35474;51.032;6.998;2022-08-05T12:41:44;26.25;49.80
52656;SHT85;35474;51.032;6.998;2022-08-05T12:44:12;24.88;52.98
52656;SHT85;35474;51.032;6.998;2022-08-05T12:46:58;25.46;52.41
52656;SHT85;35474;51.032;6.998;2022-08-05T12:49:36;25.74;51.25
52656;SHT85;35474;51.032;6.998;2022-08-05T12:52:24;25.73;51.67
52656;SHT85;35474;51.032;6.998;2022-08-05T12:55:00;27.13;48.14
52656;SHT85;35474;51.032;6.998;2022-08-05T12:57:27;27.24;47.75
52656;SHT85;35474;51.032;6.998;2022-08-05T13:00:22;28.34;45.28
52656;SHT85;35474;51.032;6.998;2022-08-05T13:03:10;29.65;42.57
52656;SHT85;35474;51.032;6.998;2022-08-05T13:05:40;29.51;42.17
52656;SHT85;35474;51.032;6.998;2022-08-05T13:08:07;30.20;41.47
52656;SHT85;35474;51.032;6.998;2022-08-05T13:10:34;30.86;40.29
52656;SHT85;35474;51.032;6.998;2022-08-05T13:13:18;29.47;42.31
52656;SHT85;35474;51.032;6.998;2022-08-05T13:16:10;28.44;44.72
52656;SHT85;35474;51.032;6.998;2022-08-05T13:18:49;27.30;46.44
52656;SHT85;35474;51.032;6.998;2022-08-05T13:21:16;27.08;46.90
52656;SHT85;35474;51.032;6.998;2022-08-05T13:23:43;28.16;44.82
52656;SHT85;35474;51.032;6.998;2022-08-05T13:26:17;26.45;48.52
52656;SHT85;35474;51.032;6.998;2022-08-05T13:28:45;28.33;45.32
52656;SHT85;35474;51.032;6.998;2022-08-05T13:31:11;28.81;43.51
52656;SHT85;35474;51.032;6.998;2022-08-05T13:33:39;29.18;42.65
52656;SHT85;35474;51.032;6.998;2022-08-05T13:36:27;28.67;43.66
52656;SHT85;35474;51.032;6.998;2022-08-05T13:38:54;29.74;41.55
52656;SHT85;35474;51.032;6.998;2022-08-05T13:41:22;29.84;41.34
52656;SHT85;35474;51.032;6.998;2022-08-05T13:44:01;28.68;42.92
52656;SHT85;35474;51.032;6.998;2022-08-05T13:46:28;27.76;45.10
52656;SHT85;35474;51.032;6.998;2022-08-05T13:49:16;27.42;45.67
52656;SHT85;35474;51.032;6.998;2022-08-05T13:51:42;27.38;45.06
52656;SHT85;35474;51.032;6.998;2022-08-05T13:54:12;26.50;46.60
52656;SHT85;35474;51.032;6.998;2022-08-05T13:56:41;26.55;46.82
52656;SHT85;35474;51.032;6.998;2022-08-05T13:59:20;26.88;46.66
52656;SHT85;35474;51.032;6.998;2022-08-05T14:01:54;25.88;49.22
52656;SHT85;35474;51.032;6.998;2022-08-05T14:04:28;25.47;50.11
52656;SHT85;35474;51.032;6.998;2022-08-05T14:07:19;25.10;51.36
52656;SHT85;35474;51.032;6.998;2022-08-05T14:10:11;24.93;52.70
52656;SHT85;35474;51.032;6.998;2022-08-05T14:12:54;24.95;52.84
52656;SHT85;35474;51.032;6.998;2022-08-05T14:15:22;24.79;52.75
52656;SHT85;35474;51.032;6.998;2022-08-05T14:18:10;24.24;54.65
52656;SHT85;35474;51.032;6.998;2022-08-05T14:20:44;23.26;57.82
52656;SHT85;35474;51.032;6.998;2022-08-05T14:23:13;23.14;59.60
52656;SHT85;35474;51.032;6.998;2022-08-05T14:25:52;23.25;59.57
52656;SHT85;35474;51.032;6.998;2022-08-05T14:28:23;23.28;59.27
52656;SHT85;35474;51.032;6.998;2022-08-05T14:30:52;23.19;58.23
52656;SHT85;35474;51.032;6.998;2022-08-05T14:33:19;23.26;57.76
52656;SHT85;35474;51.032;6.998;2022-08-05T14:35:48;23.34;56.36
52656;SHT85;35474;51.032;6.998;2022-08-05T14:38:17;23.38;56.04
52656;SHT85;35474;51.032;6.998;2022-08-05T14:41:00;23.61;55.45
52656;SHT85;35474;51.032;6.998;2022-08-05T14:43:34;24.30;54.36
52656;SHT85;35474;51.032;6.998;2022-08-05T14:46:22;25.77;50.71
52656;SHT85;35474;51.032;6.998;2022-08-05T14:48:53;26.70;48.49
52656;SHT85;35474;51.032;6.998;2022-08-05T14:51:20;27.25;46.70
52656;SHT85;35474;51.032;6.998;2022-08-05T14:53:47;28.26;44.79
52656;SHT85;35474;51.032;6.998;2022-08-05T14:56:35;29.26;41.53
52656;SHT85;35474;51.032;6.998;2022-08-05T14:59:09;27.18;43.37
52656;SHT85;35474;51.032;6.998;2022-08-05T15:01:37;27.32;43.41
52656;SHT85;35474;51.032;6.998;2022-08-05T15:04:15;26.31;45.20
52656;SHT85;35474;51.032;6.998;2022-08-05T15:06:45;25.55;47.99
52656;SHT85;35474;51.032;6.998;2022-08-05T15:09:15;25.19;48.75
52656;SHT85;35474;51.032;6.998;2022-08-05T15:12:05;24.90;49.71
52656;SHT85;35474;51.032;6.998;2022-08-05T15:14:34;25.09;49.77
52656;SHT85;35474;51.032;6.998;2022-08-05T15:17:15;25.40;49.21
52656;SHT85;35474;51.032;6.998;2022-08-05T15:20:06;25.60;48.91
52656;SHT85;35474;51.032;6.998;2022-08-05T15:22:44;25.50;49.54
52656;SHT85;35474;51.032;6.998;2022-08-05T15:25:19;25.70;48.02
52656;SHT85;35474;51.032;6.998;2022-08-05T15:28:06;25.37;48.15
52656;SHT85;35474;51.032;6.998;2022-08-05T15:30:38;25.26;48.85
52656;SHT85;35474;51.032;6.998;2022-08-05T15:33:05;24.89;48.47
52656;SHT85;35474;51.032;6.998;2022-08-05T15:35:32;25.10;48.73
52656;SHT85;35474;51.032;6.998;2022-08-05T15:38:10;24.92;48.30
52656;SHT85;35474;51.032;6.998;2022-08-05T15:40:56;24.79;49.31
52656;SHT85;35474;51.032;6.998;2022-08-05T15:43:42;24.49;50.26
52656;SHT85;35474;51.032;6.998;2022-08-05T15:46:12;24.35;49.13
52656;SHT85;35474;51.032;6.998;2022-08-05T15:48:39;24.42;49.94
52656;SHT85;35474;51.032;6.998;2022-08-05T15:51:18;24.55;49.35
52656;SHT85;35474;51.032;6.998;2022-08-05T15:54:07;24.44;50.30
52656;SHT85;35474;51.032;6.998;2022-08-05T15:56:40;25.02;49.06
52656;SHT85;35474;51.032;6.998;2022-08-05T15:59:06;25.20;48.46
52656;SHT85;35474;51.032;6.998;2022-08-05T16:01:33;25.23;48.59
52656;SHT85;35474;51.032;6.998;2022-08-05T16:04:05;24.65;49.21
52656;SHT85;35474;51.032;6.998;2022-08-05T16:06:35;24.73;49.13
52656;SHT85;35474;51.032;6.998;2022-08-05T16:09:02;24.78;48.94
52656;SHT85;35474;51.032;6.998;2022-08-05T16:11:29;24.86;49.13
52656;SHT85;35474;51.032;6.998;2022-08-05T16:14:08;24.16;49.15
52656;SHT85;35474;51.032;6.998;2022-08-05T16:16:34;24.18;49.67
52656;SHT85;35474;51.032;6.998;2022-08-05T16:19:01;24.16;49.94
52656;SHT85;35474;51.032;6.998;2022-08-05T16:22:55;24.16;48.85
52656;SHT85;35474;51.032;6.998;2022-08-05T16:25:22;23.87;49.29
52656;SHT85;35474;51.032;6.998;2022-08-05T16:28:00;23.94;49.20
52656;SHT85;35474;51.032;6.998;2022-08-05T16:30:31;24.04;48.77
52656;SHT85;35474;51.032;6.998;2022-08-05T16:33:01;23.97;47.88
52656;SHT85;35474;51.032;6.998;2022-08-05T16:35:31;24.25;47.62
52656;SHT85;35474;51.032;6.998;2022-08-05T16:38:08;24.23;47.12
52656;SHT85;35474;51.032;6.998;2022-08-05T16:40:51;24.37;46.86
52656;SHT85;35474;51.032;6.998;2022-08-05T16:43:26;24.38;46.83
52656;SHT85;35474;51.032;6.998;2022-08-05T16:45:58;24.30;46.86
52656;SHT85;35474;51.032;6.998;2022-08-05T16:48:34;24.13;46.82
52656;SHT85;35474;51.032;6.998;2022-08-05T16:51:01;23.92;46.97
52656;SHT85;35474;51.032;6.998;2022-08-05T16:53:35;23.69;46.86